Islesford, ME (04646)

8:17 AM EST on January 22, 2017 (GMT -0500)
| | Change Station
Active Advisory: Gale Warning

Elev -9999 ft 0.00 °N, 0.00 °E | Updated 0 second ago

Overcast
Overcast
°F
Feels Like °F
N
Wind Variable Wind from North
Gusts mph

Today
High -- | Low -- °F
--% Chance of Precip.
Yesterday
High -- | Low -- °F
Precip. -- in
Pressure 29.87 in
Visibility 10.0 miles
Clouds Overcast 4300 ft
Dew Point Not available.
Humidity Not available.
Rainfall --
Snow Depth Not available.
7:00 AM 4:29 PM
Waning Crescent, 26% visible
METAR KBHB 221256Z AUTO 35003KT 10SM OVC043 01/M01 A2986 RMK AO2 SLP115 T00061006 FZRANO
Pressure 29.87 in
Visibility 10.0 miles
Clouds Overcast 4300 ft
Dew Point Not available.
Humidity Not available.
Rainfall --
Snow Depth Not available.
7:00 AM 4:29 PM
Waning Crescent, 26% visible
METAR KBHB 221256Z AUTO 35003KT 10SM OVC043 01/M01 A2986 RMK AO2 SLP115 T00061006 FZRANO

Get Your Daily Forecast Email!

Thanks for signing up!

Be on the lookout for a verification email in your inbox.

You'll start receiving the daily forecast at 8 AM.

×

10-Day Weather Forecast

Almanac

Astronomy

Jan. 22, 2017 Rise Set
Actual Time
Civil Twilight
Nautical Twilight
Astronomical Twilight
Moon
Length of Visible Light
Length of Day
Tomorrow will be .
, % of the Moon is Illuminated

Today's Extremes

State Highs State Lows

Community

WunderPhotos

Upload Photos

1,962,540 photos uploaded!

WunderBlog® & News

Nearby

Air Quality

  Air Quality AQ Index Pollutant
Not available.

Snow Depth

Station Depth Elevation

Earthquake Activity

City Distance Mag. Time & Date
Minimum magnitude displayed is 2.5.

Coastal Water Temperatures

Place Temperature

Stations

Nearby Weather Stations

Station Location Temp. Windchill Dew Point Humidity Wind Precip. Elev Updated Type
                   

Watches & Warnings

Gale Warning
Issued: 2:39 AM EST Jan. 22, 2017 – National Weather Service

... Gale Warning in effect from 7 PM Monday to 4 PM EST Tuesday...

The National Weather Service in Caribou has issued a Gale
Warning... which is in effect from 7 PM Monday to 4 PM EST
Tuesday. The gale watch is no longer in effect.

* Winds and seas... east winds 30 to 40 kt with gusts up to 45
kt. Seas 13 to 18 feet.

Precautionary/preparedness actions...

A Gale Warning means winds of 34 to 47 knots are imminent or
occurring. Operating a vessel in gale conditions requires
experience and properly equipped vessels. It is highly
recommended that mariners without the proper experience seek safe
Harbor prior to the onset of gale conditions.